createdAt,value
2023-02-28T00:01:13.837Z,70.30
2023-02-28T00:03:44.455Z,70.40
2023-02-28T00:06:12.374Z,70.90
2023-02-28T00:08:41.352Z,71.20
2023-02-28T00:11:11.142Z,71.00
2023-02-28T00:13:42.364Z,71.20
2023-02-28T00:16:12.244Z,71.50
2023-02-28T00:18:40.676Z,71.30
2023-02-28T00:21:10.816Z,71.80
2023-02-28T00:23:39.058Z,71.80
2023-02-28T00:26:07.105Z,71.80
2023-02-28T00:28:35.185Z,72.50
2023-02-28T00:31:03.032Z,72.70
2023-02-28T00:33:31.144Z,72.80
2023-02-28T00:36:11.692Z,73.10
2023-02-28T00:38:40.867Z,73.30
2023-02-28T00:41:09.505Z,73.70
2023-02-28T00:43:39.354Z,73.90
2023-02-28T00:46:07.781Z,73.90
2023-02-28T00:48:36.053Z,74.30
2023-02-28T00:51:03.984Z,74.10
2023-02-28T00:53:33.509Z,74.30
2023-02-28T00:56:01.551Z,74.40
2023-02-28T00:58:29.632Z,74.80
2023-02-28T01:01:01.184Z,75.00
2023-02-28T01:03:29.425Z,75.00
2023-02-28T01:05:57.294Z,75.30
2023-02-28T01:08:25.345Z,75.40
2023-02-28T01:10:54.562Z,75.80
2023-02-28T01:13:24.097Z,76.40
2023-02-28T01:15:55.075Z,77.00
2023-02-28T01:18:25.446Z,77.40
2023-02-28T01:20:53.633Z,78.00
2023-02-28T01:23:22.712Z,78.40
2023-02-28T01:25:50.650Z,78.50
2023-02-28T01:28:19.866Z,79.10
2023-02-28T01:30:51.006Z,79.70
2023-02-28T01:33:18.912Z,80.20
2023-02-28T01:35:46.770Z,79.90
2023-02-28T01:38:22.199Z,79.90
2023-02-28T01:40:50.824Z,80.60
2023-02-28T01:43:24.080Z,80.90
2023-02-28T01:45:52.366Z,80.90
2023-02-28T01:48:21.492Z,81.30
2023-02-28T01:50:50.270Z,81.40
2023-02-28T01:53:20.852Z,81.70
2023-02-28T01:55:52.245Z,81.80
2023-02-28T01:58:21.992Z,81.80
2023-02-28T02:00:49.861Z,82.30
2023-02-28T02:03:20.854Z,82.40
2023-02-28T02:05:49.060Z,82.60
2023-02-28T02:08:35.335Z,82.80
2023-02-28T02:11:05.535Z,83.00
2023-02-28T02:14:01.673Z,83.10
2023-02-28T02:16:43.541Z,83.50
2023-02-28T02:19:30.861Z,83.50
2023-02-28T02:22:20.860Z,83.80
2023-02-28T02:25:03.791Z,83.90
2023-02-28T02:27:50.273Z,84.20
2023-02-28T02:30:46.376Z,84.40
2023-02-28T02:33:38.252Z,84.50
2023-02-28T02:36:11.500Z,84.70
2023-02-28T02:38:44.269Z,85.50
2023-02-28T02:41:17.383Z,85.50
2023-02-28T02:43:51.448Z,85.80
2023-02-28T02:46:22.810Z,85.60
2023-02-28T02:48:52.704Z,85.60
2023-02-28T02:51:24.865Z,85.90
2023-02-28T02:53:56.616Z,85.60
2023-02-28T02:56:28.197Z,85.30
2023-02-28T02:58:58.857Z,85.60
2023-02-28T03:01:29.779Z,85.60
2023-02-28T03:03:56.825Z,85.50
2023-02-28T03:06:26.200Z,85.30
2023-02-28T03:08:54.066Z,85.60
2023-02-28T03:11:22.534Z,85.40
2023-02-28T03:14:02.547Z,85.80
2023-02-28T03:16:41.226Z,85.70
2023-02-28T03:19:31.521Z,85.80
2023-02-28T03:22:16.072Z,85.50
2023-02-28T03:24:51.457Z,85.90
2023-02-28T03:27:25.575Z,85.40
2023-02-28T03:30:00.655Z,85.40
2023-02-28T03:32:31.905Z,85.60
2023-02-28T03:35:06.912Z,85.40
2023-02-28T03:37:39.047Z,85.40
2023-02-28T03:40:13.624Z,85.40
2023-02-28T03:42:45.371Z,85.40
2023-02-28T03:45:16.939Z,85.20
2023-02-28T03:47:49.937Z,85.00
2023-02-28T03:50:22.383Z,85.10
2023-02-28T03:52:55.460Z,85.00
2023-02-28T03:55:23.764Z,85.50
2023-02-28T03:57:58.895Z,85.50
2023-02-28T04:00:33.771Z,85.20
2023-02-28T04:03:01.663Z,85.60
2023-02-28T04:05:30.452Z,85.70
2023-02-28T04:08:07.592Z,86.00
2023-02-28T04:10:35.553Z,86.00
2023-02-28T04:13:03.318Z,86.30
2023-02-28T04:15:31.070Z,86.50
2023-02-28T04:17:59.078Z,86.80
2023-02-28T04:20:26.894Z,87.10
2023-02-28T04:22:54.832Z,87.10
2023-02-28T04:25:23.912Z,86.60
2023-02-28T04:27:51.676Z,87.10
2023-02-28T04:30:19.549Z,87.60
2023-02-28T04:32:47.313Z,87.60
2023-02-28T04:35:15.172Z,87.70
2023-02-28T04:37:42.982Z,87.80
2023-02-28T04:40:12.025Z,87.80
2023-02-28T04:42:41.142Z,88.10
2023-02-28T04:45:11.125Z,88.00
2023-02-28T04:47:38.910Z,88.20
2023-02-28T04:50:07.439Z,88.40
2023-02-28T04:52:35.208Z,88.00
2023-02-28T04:55:03.051Z,88.30
2023-02-28T04:57:30.969Z,88.10
2023-02-28T05:00:00.105Z,88.20
2023-02-28T05:02:27.962Z,88.30
2023-02-28T05:04:55.871Z,88.50
2023-02-28T05:07:23.660Z,88.60
2023-02-28T05:09:51.410Z,88.50
2023-02-28T05:12:19.160Z,88.80
2023-02-28T05:14:46.965Z,88.40
2023-02-28T05:17:16.068Z,88.90
2023-02-28T05:19:43.803Z,88.60
2023-02-28T05:22:16.619Z,88.30
2023-02-28T05:24:44.773Z,88.50
2023-02-28T05:27:12.826Z,88.80
2023-02-28T05:29:44.177Z,88.70
2023-02-28T05:32:12.639Z,88.80
2023-02-28T05:34:42.617Z,88.70
2023-02-28T05:37:13.998Z,88.60
2023-02-28T05:39:41.904Z,88.70
2023-02-28T05:42:10.114Z,88.90
2023-02-28T05:44:38.165Z,88.70
2023-02-28T05:47:06.018Z,88.80
2023-02-28T05:49:33.780Z,88.50
2023-02-28T05:52:02.878Z,88.50
2023-02-28T05:54:30.631Z,88.20
2023-02-28T05:56:58.621Z,87.90
2023-02-28T05:59:26.474Z,88.10
2023-02-28T06:01:54.777Z,88.20
2023-02-28T06:04:31.447Z,87.90
2023-02-28T06:07:02.588Z,88.00
2023-02-28T06:09:30.545Z,87.60
2023-02-28T06:12:00.181Z,87.60
2023-02-28T06:14:28.327Z,87.60
2023-02-28T06:16:58.816Z,87.60
2023-02-28T06:19:27.077Z,87.80
2023-02-28T06:21:55.975Z,87.60
2023-02-28T06:24:28.849Z,87.50
2023-02-28T06:26:56.769Z,87.60
2023-02-28T06:29:24.502Z,87.20
2023-02-28T06:31:52.335Z,86.90
2023-02-28T06:34:20.217Z,87.20
2023-02-28T06:36:47.968Z,87.00
2023-02-28T06:39:15.837Z,87.00
2023-02-28T06:41:54.594Z,86.80
2023-02-28T06:44:24.870Z,86.90
2023-02-28T06:46:52.951Z,86.90
2023-02-28T06:49:20.712Z,86.60
2023-02-28T06:51:48.470Z,86.20
2023-02-28T06:54:16.241Z,86.20
2023-02-28T06:56:45.453Z,86.40
2023-02-28T06:59:13.224Z,86.30
2023-02-28T07:01:41.083Z,85.60
2023-02-28T07:04:09.114Z,85.60
2023-02-28T07:06:37.096Z,84.90
2023-02-28T07:09:06.069Z,84.60
2023-02-28T07:11:33.912Z,84.30
2023-02-28T07:14:03.011Z,84.20
2023-02-28T07:16:30.851Z,84.50
2023-02-28T07:18:58.620Z,83.90
2023-02-28T07:21:26.704Z,83.00
2023-02-28T07:23:54.557Z,83.30
2023-02-28T07:26:22.690Z,82.80
2023-02-28T07:28:51.172Z,82.50
2023-02-28T07:31:20.646Z,82.20
2023-02-28T07:33:48.493Z,82.20
2023-02-28T07:36:19.432Z,81.60
2023-02-28T07:38:50.735Z,81.30
2023-02-28T07:41:19.998Z,79.80
2023-02-28T07:43:48.379Z,78.90
2023-02-28T07:46:18.100Z,77.10
2023-02-28T07:48:47.345Z,75.30
2023-02-28T07:51:15.166Z,75.10
2023-02-28T07:53:43.051Z,74.30
2023-02-28T07:56:11.612Z,73.80
2023-02-28T07:58:39.393Z,74.10
2023-02-28T08:01:08.428Z,74.00
2023-02-28T08:03:36.325Z,74.10
2023-02-28T08:06:05.749Z,73.10
2023-02-28T08:08:33.543Z,73.80
2023-02-28T08:11:02.415Z,74.10
2023-02-28T08:13:31.278Z,72.60
2023-02-28T08:15:59.090Z,73.50
2023-02-28T08:18:26.916Z,73.00
2023-02-28T08:20:54.671Z,72.80
2023-02-28T08:23:23.802Z,73.50
2023-02-28T08:25:55.621Z,72.90
2023-02-28T08:28:24.981Z,73.10
2023-02-28T08:30:53.818Z,72.30
2023-02-28T08:33:21.717Z,72.20
2023-02-28T08:35:49.652Z,72.30
2023-02-28T08:38:17.414Z,72.70
2023-02-28T08:40:46.509Z,72.30
2023-02-28T08:43:14.574Z,72.40
2023-02-28T08:45:42.456Z,72.40
2023-02-28T08:48:10.246Z,73.00
2023-02-28T08:50:37.986Z,72.70
2023-02-28T08:53:05.767Z,72.30
2023-02-28T08:55:33.549Z,72.40
2023-02-28T08:58:03.090Z,71.90
2023-02-28T09:00:30.935Z,72.70
2023-02-28T09:02:58.697Z,70.90
2023-02-28T09:05:26.737Z,71.80
2023-02-28T09:07:54.534Z,71.90
2023-02-28T09:10:22.288Z,72.30
2023-02-28T09:12:50.114Z,71.50
2023-02-28T09:15:19.482Z,71.20
2023-02-28T09:17:48.598Z,71.10
2023-02-28T09:20:16.664Z,71.60
2023-02-28T09:22:44.452Z,71.20
2023-02-28T09:25:12.201Z,71.90
2023-02-28T09:27:41.830Z,70.00
2023-02-28T09:30:11.232Z,70.00
2023-02-28T09:32:40.584Z,71.00
2023-02-28T09:35:14.140Z,70.70
2023-02-28T09:37:41.966Z,70.70
2023-02-28T09:40:11.945Z,70.80
2023-02-28T09:42:40.734Z,69.80
2023-02-28T09:45:16.718Z,70.10
2023-02-28T09:47:49.484Z,69.60
2023-02-28T09:50:25.355Z,70.30
2023-02-28T09:52:53.179Z,70.90
2023-02-28T09:55:24.299Z,69.60
2023-02-28T09:57:53.561Z,70.40
2023-02-28T10:00:26.526Z,69.90
2023-02-28T10:03:08.393Z,70.60
2023-02-28T10:05:43.364Z,69.60
2023-02-28T10:08:16.973Z,69.30
2023-02-28T10:10:47.735Z,68.50
2023-02-28T10:13:23.835Z,68.50
2023-02-28T10:15:56.640Z,69.10
2023-02-28T10:18:31.566Z,69.80
2023-02-28T10:20:59.733Z,70.20
2023-02-28T10:23:30.769Z,69.70
2023-02-28T10:26:02.305Z,68.60
2023-02-28T10:28:32.877Z,69.10
2023-02-28T10:31:01.024Z,69.00
2023-02-28T10:33:32.997Z,68.70
2023-02-28T10:36:01.181Z,69.10
2023-02-28T10:38:33.592Z,69.70
2023-02-28T10:41:09.619Z,69.20
2023-02-28T10:43:38.622Z,68.60
2023-02-28T10:46:15.761Z,69.00
2023-02-28T10:48:50.880Z,69.30
2023-02-28T10:51:21.059Z,68.70
2023-02-28T10:54:06.675Z,68.40
2023-02-28T10:56:35.249Z,67.30
2023-02-28T10:59:22.436Z,68.50
2023-02-28T11:01:53.016Z,67.50
2023-02-28T11:04:38.785Z,67.40
2023-02-28T11:07:09.174Z,67.30
2023-02-28T11:09:40.501Z,67.60
2023-02-28T11:12:10.684Z,67.20
2023-02-28T11:14:49.773Z,67.40
2023-02-28T11:17:23.170Z,66.80
2023-02-28T11:19:57.124Z,66.20
2023-02-28T11:22:29.531Z,66.30
2023-02-28T11:25:00.274Z,65.60
2023-02-28T11:27:47.519Z,65.00
2023-02-28T11:30:34.764Z,65.30
2023-02-28T11:33:03.757Z,64.40
2023-02-28T11:35:38.242Z,65.40
2023-02-28T11:38:09.926Z,66.50
2023-02-28T11:40:45.815Z,66.10
2023-02-28T11:43:29.418Z,66.10
2023-02-28T11:46:17.492Z,66.10
2023-02-28T11:48:56.822Z,65.10
2023-02-28T11:51:32.353Z,65.70
2023-02-28T11:54:25.942Z,64.70
2023-02-28T11:56:59.704Z,64.80
2023-02-28T11:59:49.884Z,65.50
2023-02-28T12:02:26.191Z,64.90
2023-02-28T12:05:14.805Z,65.40
2023-02-28T12:07:54.222Z,63.70
2023-02-28T12:10:27.075Z,64.60
2023-02-28T12:13:10.100Z,64.90
2023-02-28T12:16:09.566Z,64.20
2023-02-28T12:19:03.322Z,64.60
2023-02-28T12:21:41.063Z,64.00
2023-02-28T12:24:33.303Z,63.30
2023-02-28T12:27:04.661Z,63.90
2023-02-28T12:29:36.047Z,63.30
2023-02-28T12:32:10.307Z,63.80
2023-02-28T12:34:43.111Z,64.60
2023-02-28T12:37:16.896Z,64.50
2023-02-28T12:39:50.923Z,64.90
2023-02-28T12:42:25.971Z,64.30
2023-02-28T12:44:58.678Z,64.00
2023-02-28T12:47:26.459Z,64.40
2023-02-28T12:49:59.217Z,64.50
2023-02-28T12:52:36.682Z,64.60
2023-02-28T12:55:15.320Z,63.80
2023-02-28T12:57:49.628Z,65.30
2023-02-28T13:00:19.894Z,63.90
2023-02-28T13:03:21.128Z,62.60
2023-02-28T13:06:07.207Z,63.50
2023-02-28T13:09:05.467Z,62.80
2023-02-28T13:11:40.795Z,62.20
2023-02-28T13:14:26.046Z,62.00
2023-02-28T13:17:00.023Z,61.90
2023-02-28T13:19:30.289Z,62.90
2023-02-28T13:21:59.606Z,60.30
2023-02-28T13:24:47.444Z,60.20
2023-02-28T13:27:40.219Z,61.30
2023-02-28T13:30:50.674Z,60.70
2023-02-28T13:33:27.115Z,60.00
2023-02-28T13:36:11.210Z,60.20
2023-02-28T13:38:42.550Z,60.70
2023-02-28T13:41:53.224Z,60.30
2023-02-28T13:44:24.945Z,59.80
2023-02-28T13:47:29.651Z,59.80
2023-02-28T13:50:20.585Z,60.20
2023-02-28T13:52:56.004Z,59.90
2023-02-28T13:55:31.150Z,59.00
2023-02-28T13:58:20.502Z,59.40
2023-02-28T14:01:09.516Z,59.50
2023-02-28T14:04:00.911Z,58.90
2023-02-28T14:06:31.132Z,58.80
2023-02-28T14:09:01.585Z,59.30
2023-02-28T14:11:33.227Z,59.30
2023-02-28T14:14:02.350Z,60.00
2023-02-28T14:16:41.264Z,59.70
2023-02-28T14:19:15.145Z,59.60
2023-02-28T14:21:58.212Z,60.30
2023-02-28T14:25:02.059Z,59.50
2023-02-28T14:27:45.331Z,59.40
2023-02-28T14:30:35.761Z,59.50
2023-02-28T14:33:16.937Z,58.60
2023-02-28T14:35:58.252Z,59.10
2023-02-28T14:38:29.262Z,58.10
2023-02-28T14:41:00.350Z,58.30
2023-02-28T14:43:29.615Z,57.90
2023-02-28T14:46:00.123Z,57.60
2023-02-28T14:48:30.333Z,58.40
2023-02-28T14:51:00.529Z,58.40
2023-02-28T14:53:32.288Z,57.70
2023-02-28T14:56:01.207Z,59.00
2023-02-28T14:58:31.033Z,58.50
2023-02-28T15:01:01.343Z,58.30
2023-02-28T15:03:35.232Z,58.80
2023-02-28T15:06:05.087Z,59.50
2023-02-28T15:08:36.860Z,59.20
2023-02-28T15:11:07.030Z,59.70
2023-02-28T15:13:39.552Z,59.60
2023-02-28T15:16:12.344Z,60.00
2023-02-28T15:18:49.174Z,59.20
2023-02-28T15:21:19.599Z,59.40
2023-02-28T15:23:51.766Z,59.60
2023-02-28T15:26:22.879Z,59.50
2023-02-28T15:28:53.261Z,59.50
2023-02-28T15:31:25.565Z,59.70
2023-02-28T15:34:00.082Z,60.00
2023-02-28T15:36:32.997Z,59.10
2023-02-28T15:39:10.715Z,60.40
2023-02-28T15:41:43.410Z,60.20
2023-02-28T15:44:30.654Z,60.30
2023-02-28T15:47:04.623Z,59.40
2023-02-28T15:49:44.947Z,60.10
2023-02-28T15:52:17.647Z,60.00
2023-02-28T15:54:46.477Z,59.80
2023-02-28T15:57:17.493Z,60.00
2023-02-28T15:59:52.762Z,59.60
2023-02-28T16:02:22.283Z,60.20
2023-02-28T16:05:03.017Z,59.90
2023-02-28T16:07:31.277Z,60.10
2023-02-28T16:09:59.152Z,60.50
2023-02-28T16:12:29.578Z,60.90
2023-02-28T16:14:59.670Z,60.60
2023-02-28T16:17:30.890Z,60.80
2023-02-28T16:19:59.491Z,60.70
2023-02-28T16:22:28.694Z,60.70
2023-02-28T16:24:56.508Z,60.70
2023-02-28T16:27:28.780Z,60.90
2023-02-28T16:29:56.581Z,60.60
2023-02-28T16:32:24.646Z,60.30
2023-02-28T16:34:52.543Z,60.70
2023-02-28T16:37:20.459Z,60.30
2023-02-28T16:39:51.010Z,60.60
2023-02-28T16:42:25.798Z,61.20
2023-02-28T16:44:54.489Z,61.30
2023-02-28T16:47:22.549Z,61.00
2023-02-28T16:49:50.321Z,61.80
2023-02-28T16:52:18.073Z,61.40
2023-02-28T16:54:45.840Z,61.80
2023-02-28T16:57:21.154Z,62.20
2023-02-28T16:59:49.514Z,62.80
2023-02-28T17:02:20.257Z,62.90
2023-02-28T17:04:48.845Z,63.20
2023-02-28T17:07:18.167Z,63.40
2023-02-28T17:09:46.972Z,63.30
2023-02-28T17:12:16.339Z,63.30
2023-02-28T17:14:44.205Z,63.70
2023-02-28T17:17:19.040Z,63.20
2023-02-28T17:19:46.823Z,63.10
2023-02-28T17:22:14.695Z,63.60
2023-02-28T17:24:42.465Z,63.60
2023-02-28T17:27:13.403Z,63.20
2023-02-28T17:29:42.645Z,63.50
2023-02-28T17:32:17.971Z,64.00
2023-02-28T17:34:46.816Z,63.90
2023-02-28T17:37:14.954Z,64.50
2023-02-28T17:39:42.751Z,65.30
2023-02-28T17:42:10.507Z,65.30
2023-02-28T17:44:38.603Z,64.90
2023-02-28T17:47:07.805Z,65.00
2023-02-28T17:49:35.609Z,65.40
2023-02-28T17:52:03.404Z,65.70
2023-02-28T17:54:31.166Z,65.80
2023-02-28T17:56:58.953Z,66.00
2023-02-28T17:59:26.705Z,66.80
2023-02-28T18:01:54.465Z,66.50
2023-02-28T18:04:23.589Z,66.70
2023-02-28T18:06:52.269Z,67.10
2023-02-28T18:09:22.634Z,67.40
2023-02-28T18:11:50.941Z,66.90
2023-02-28T18:14:20.198Z,66.40
2023-02-28T18:16:48.424Z,66.50
2023-02-28T18:19:17.669Z,66.80
2023-02-28T18:21:48.503Z,66.30
2023-02-28T18:24:17.875Z,66.40
2023-02-28T18:26:45.943Z,66.40
2023-02-28T18:29:18.607Z,66.30
2023-02-28T18:31:46.697Z,66.20
2023-02-28T18:34:15.086Z,66.20
2023-02-28T18:36:43.336Z,66.00
2023-02-28T18:39:12.436Z,65.90
2023-02-28T18:41:40.315Z,65.80
2023-02-28T18:44:19.091Z,65.80
2023-02-28T18:46:48.174Z,65.80
2023-02-28T18:49:16.056Z,65.60
2023-02-28T18:51:45.326Z,65.70
2023-02-28T18:54:15.219Z,64.50
2023-02-28T18:56:43.432Z,64.90
2023-02-28T18:59:11.886Z,65.10
2023-02-28T19:01:40.000Z,65.00
2023-02-28T19:04:07.942Z,65.30
2023-02-28T19:06:38.008Z,66.30
2023-02-28T19:09:06.555Z,66.60
2023-02-28T19:11:36.813Z,66.50
2023-02-28T19:14:04.874Z,67.20
2023-02-28T19:16:33.009Z,67.60
2023-02-28T19:19:00.937Z,68.40
2023-02-28T19:21:28.756Z,68.60
2023-02-28T19:23:56.572Z,69.10
2023-02-28T19:26:26.030Z,69.40
2023-02-28T19:28:55.161Z,69.50
2023-02-28T19:31:24.988Z,70.00
2023-02-28T19:33:53.668Z,70.50
2023-02-28T19:36:22.847Z,70.80
2023-02-28T19:38:51.322Z,70.90
2023-02-28T19:41:19.724Z,71.40
2023-02-28T19:43:48.170Z,72.30
2023-02-28T19:46:18.857Z,72.50
2023-02-28T19:48:48.722Z,73.00
2023-02-28T19:53:50.353Z,73.70
2023-02-28T19:56:18.097Z,73.50
2023-02-28T19:58:45.862Z,74.20
2023-02-28T20:01:15.294Z,74.90
2023-02-28T20:03:47.781Z,75.10
2023-02-28T20:06:15.628Z,74.60
2023-02-28T20:08:44.021Z,75.50
2023-02-28T20:11:13.809Z,76.70
2023-02-28T20:13:41.787Z,77.60
2023-02-28T20:16:12.033Z,78.10
2023-02-28T20:18:41.004Z,78.60
2023-02-28T20:21:10.989Z,79.20
2023-02-28T20:23:39.009Z,80.00
2023-02-28T20:26:07.093Z,80.40
2023-02-28T20:28:34.891Z,81.20
2023-02-28T20:31:03.100Z,81.50
2023-02-28T20:33:30.871Z,82.00
2023-02-28T20:36:02.273Z,82.50
2023-02-28T20:38:31.481Z,82.30
2023-02-28T20:41:00.916Z,82.10
2023-02-28T20:43:29.645Z,80.60
2023-02-28T20:46:01.640Z,81.30
2023-02-28T20:48:30.493Z,81.80
2023-02-28T20:51:00.355Z,81.70
2023-02-28T20:53:29.550Z,81.40
2023-02-28T20:56:00.431Z,80.80
2023-02-28T20:58:31.295Z,81.70
2023-02-28T21:01:02.961Z,82.30
2023-02-28T21:03:31.024Z,82.20
2023-02-28T21:06:03.037Z,82.30
2023-02-28T21:08:30.969Z,82.10
2023-02-28T21:11:00.113Z,83.50
2023-02-28T21:13:28.070Z,82.80
2023-02-28T21:15:55.964Z,82.50
2023-02-28T21:18:23.757Z,82.90
2023-02-28T21:20:51.561Z,83.00
2023-02-28T21:23:19.412Z,83.50
2023-02-28T21:25:47.188Z,82.70
2023-02-28T21:28:16.659Z,83.10
2023-02-28T21:30:44.421Z,83.30
2023-02-28T21:33:12.320Z,83.50
2023-02-28T21:35:40.106Z,83.70
2023-02-28T21:38:07.935Z,84.80
2023-02-28T21:40:35.901Z,84.00
2023-02-28T21:43:03.639Z,83.30
2023-02-28T21:45:34.548Z,84.50
2023-02-28T21:48:02.381Z,84.40
2023-02-28T21:50:30.196Z,84.70
2023-02-28T21:52:57.936Z,85.70
2023-02-28T21:55:25.856Z,85.20
2023-02-28T21:57:53.599Z,84.40
2023-02-28T22:00:22.512Z,84.40
2023-02-28T22:02:51.637Z,84.70
2023-02-28T22:05:19.397Z,85.30
2023-02-28T22:07:47.136Z,86.30
2023-02-28T22:10:14.951Z,86.50
2023-02-28T22:12:42.713Z,86.30
2023-02-28T22:15:11.126Z,86.30
2023-02-28T22:17:39.037Z,86.30
2023-02-28T22:20:09.169Z,86.40
2023-02-28T22:22:37.063Z,86.20
2023-02-28T22:25:05.469Z,86.70
2023-02-28T22:27:34.489Z,86.90
2023-02-28T22:30:02.280Z,87.10
2023-02-28T22:32:30.207Z,87.10
2023-02-28T22:34:58.203Z,86.60
2023-02-28T22:37:27.357Z,87.00
2023-02-28T22:39:55.124Z,87.40
2023-02-28T22:42:24.811Z,87.60
2023-02-28T22:44:52.905Z,87.40
2023-02-28T22:47:22.065Z,88.00
2023-02-28T22:49:52.372Z,87.30
2023-02-28T22:52:20.142Z,87.70
2023-02-28T22:54:53.215Z,87.60
2023-02-28T22:57:21.295Z,87.70
2023-02-28T22:59:49.064Z,87.30
2023-02-28T23:02:16.945Z,87.00
2023-02-28T23:04:44.722Z,88.30
2023-02-28T23:07:17.815Z,89.50
2023-02-28T23:09:45.592Z,88.80
2023-02-28T23:12:14.783Z,88.40
2023-02-28T23:14:42.599Z,89.40
2023-02-28T23:17:10.628Z,89.70
2023-02-28T23:19:38.469Z,88.90
2023-02-28T23:22:06.600Z,89.40
2023-02-28T23:24:44.174Z,89.40
2023-02-28T23:27:13.800Z,89.60
2023-02-28T23:29:42.135Z,89.40
2023-02-28T23:32:10.036Z,90.20
2023-02-28T23:34:37.930Z,89.00
2023-02-28T23:37:05.701Z,89.00
2023-02-28T23:39:33.546Z,87.90
2023-02-28T23:42:01.783Z,88.70
2023-02-28T23:44:31.757Z,88.70
2023-02-28T23:46:59.554Z,89.60
2023-02-28T23:49:27.380Z,89.80
2023-02-28T23:51:55.763Z,90.10
2023-02-28T23:54:23.883Z,89.70
2023-02-28T23:56:51.672Z,89.80
2023-02-28T23:59:19.737Z,90.40
